KUG002 HLLB-DTTA
Flight info
| Callsign | KUG002 |
|---|---|
| Flight time | N/A |
| Altitude | 36000 |
| Route | RIGEM1C RIGEM M622 INDOT/N0467F300 M622 GZO M978 DOBIX/N0386F180 M978 SONAK UM978 DIDON |
| Aircraft | A346/H-SDE2E3FGHIJ3J4J5M1RWXY/LB1D1 |
Departure
| Time | 2026-05-07 21:39 |
|---|---|
| Airport | Benina International Airport (HLLB) |
Arrival
| Time | N/A |
|---|---|
| Airport | Tunis Carthage International Airport (DTTA) |
| Time | Latitude | Longitude | Altitude | Speed | Heading |
|---|---|---|---|---|---|
| 2026-05-07 21:08 | 32.08696 | 20.27025 | 424 ft | 0 kts | 225° |
| 2026-05-07 21:27 | 32.08699 | 20.27028 | 421 ft | 0 kts | 225° |
| 2026-05-07 21:27 | 32.08716 | 20.27049 | 411 ft | 2 kts | 225° |
| 2026-05-07 21:27 | 32.08735 | 20.27071 | 409 ft | 0 kts | 225° |
| 2026-05-07 21:28 | 32.08749 | 20.27088 | 409 ft | 0 kts | 225° |
| 2026-05-07 21:28 | 32.08746 | 20.27086 | 409 ft | 1 kts | 205° |
| 2026-05-07 21:29 | 32.08739 | 20.27088 | 409 ft | 1 kts | 155° |
| 2026-05-07 21:29 | 32.08713 | 20.27091 | 409 ft | 5 kts | 239° |
| 2026-05-07 21:29 | 32.08751 | 20.27057 | 409 ft | 13 kts | 333° |
| 2026-05-07 21:29 | 32.08858 | 20.26992 | 409 ft | 14 kts | 333° |
| 2026-05-07 21:30 | 32.08962 | 20.26929 | 411 ft | 24 kts | 331° |
| 2026-05-07 21:30 | 32.09127 | 20.26818 | 415 ft | 28 kts | 329° |
| 2026-05-07 21:30 | 32.09279 | 20.26715 | 416 ft | 0 kts | 330° |
| 2026-05-07 21:31 | 32.09281 | 20.26713 | 417 ft | 3 kts | 329° |
| 2026-05-07 21:31 | 32.09343 | 20.26671 | 413 ft | 18 kts | 330° |
| 2026-05-07 21:31 | 32.09478 | 20.26581 | 420 ft | 23 kts | 330° |
| 2026-05-07 21:32 | 32.09615 | 20.26490 | 412 ft | 24 kts | 330° |
| 2026-05-07 21:32 | 32.09769 | 20.26385 | 416 ft | 29 kts | 330° |
| 2026-05-07 21:32 | 32.09977 | 20.26246 | 411 ft | 38 kts | 330° |
| 2026-05-07 21:32 | 32.10195 | 20.26095 | 413 ft | 34 kts | 327° |
| 2026-05-07 21:33 | 32.10347 | 20.25994 | 412 ft | 27 kts | 332° |
| 2026-05-07 21:33 | 32.10551 | 20.25865 | 411 ft | 33 kts | 330° |
| 2026-05-07 21:33 | 32.10726 | 20.25738 | 412 ft | 9 kts | 326° |
| 2026-05-07 21:33 | 32.10801 | 20.25686 | 419 ft | 20 kts | 330° |
| 2026-05-07 21:34 | 32.10880 | 20.25685 | 415 ft | 17 kts | 33° |
| 2026-05-07 21:34 | 32.10946 | 20.25779 | 412 ft | 0 kts | 56° |
| 2026-05-07 21:37 | 32.10946 | 20.25780 | 412 ft | 0 kts | 56° |
| 2026-05-07 21:37 | 32.10951 | 20.25787 | 418 ft | 5 kts | 57° |
| 2026-05-07 21:38 | 32.10977 | 20.25863 | 410 ft | 11 kts | 98° |
| 2026-05-07 21:38 | 32.10919 | 20.25933 | 413 ft | 0 kts | 147° |
| 2026-05-07 21:38 | 32.10915 | 20.25936 | 410 ft | 4 kts | 149° |
| 2026-05-07 21:38 | 32.10775 | 20.26033 | 410 ft | 63 kts | 148° |
| 2026-05-07 21:39 | 32.10113 | 20.26474 | 419 ft | 151 kts | 150° |
| 2026-05-07 21:39 | 32.09105 | 20.27151 | 1101 ft | 171 kts | 151° |
| 2026-05-07 21:39 | 32.08073 | 20.27833 | 2360 ft | 168 kts | 152° |
| 2026-05-07 21:39 | 32.07044 | 20.28498 | 3433 ft | 169 kts | 154° |
| 2026-05-07 21:40 | 32.05964 | 20.29183 | 3858 ft | 185 kts | 155° |
| 2026-05-07 21:40 | 32.04771 | 20.29892 | 4300 ft | 199 kts | 166° |
| 2026-05-07 21:40 | 32.03380 | 20.29808 | 4696 ft | 213 kts | 208° |
| 2026-05-07 21:40 | 32.02343 | 20.28509 | 5125 ft | 233 kts | 246° |
| 2026-05-07 21:41 | 32.02236 | 20.26522 | 5575 ft | 260 kts | 282° |
| 2026-05-07 21:41 | 32.03239 | 20.24688 | 6244 ft | 278 kts | 317° |
| 2026-05-07 21:41 | 32.05032 | 20.23805 | 7184 ft | 287 kts | 351° |
| 2026-05-07 21:41 | 32.06999 | 20.24146 | 8199 ft | 289 kts | 13° |
| 2026-05-07 21:42 | 32.08923 | 20.24793 | 9186 ft | 286 kts | 8° |
| 2026-05-07 21:42 | 32.10881 | 20.25116 | 10116 ft | 283 kts | 354° |
| 2026-05-07 21:42 | 32.12731 | 20.24513 | 10783 ft | 284 kts | 326° |
| 2026-05-07 21:42 | 32.14211 | 20.22914 | 11254 ft | 298 kts | 308° |
| 2026-05-07 21:43 | 32.15554 | 20.20957 | 11759 ft | 316 kts | 308° |
| 2026-05-07 21:43 | 32.16978 | 20.18875 | 12199 ft | 335 kts | 308° |
| 2026-05-07 21:43 | 32.18484 | 20.16681 | 12650 ft | 353 kts | 308° |
| 2026-05-07 21:43 | 32.20067 | 20.14382 | 13272 ft | 365 kts | 308° |
| 2026-05-07 21:44 | 32.21678 | 20.12049 | 13912 ft | 368 kts | 308° |
| 2026-05-07 21:44 | 32.23303 | 20.09697 | 14419 ft | 370 kts | 308° |
| 2026-05-07 21:44 | 32.24933 | 20.07336 | 14940 ft | 370 kts | 308° |
| 2026-05-07 21:44 | 32.26566 | 20.04969 | 15465 ft | 371 kts | 308° |
| 2026-05-07 21:45 | 32.28199 | 20.02602 | 15992 ft | 372 kts | 308° |
| 2026-05-07 21:45 | 32.29839 | 20.00224 | 16561 ft | 373 kts | 308° |
| 2026-05-07 21:45 | 32.31480 | 19.97843 | 17109 ft | 374 kts | 308° |
| 2026-05-07 21:45 | 32.33125 | 19.95454 | 17693 ft | 375 kts | 307° |
| 2026-05-07 21:46 | 32.34778 | 19.93056 | 18275 ft | 376 kts | 307° |
| 2026-05-07 21:46 | 32.36429 | 19.90654 | 18782 ft | 378 kts | 307° |
| 2026-05-07 21:46 | 32.38097 | 19.88227 | 19290 ft | 382 kts | 307° |
| 2026-05-07 21:46 | 32.39786 | 19.85767 | 19805 ft | 387 kts | 307° |
| 2026-05-07 21:47 | 32.41493 | 19.83278 | 20330 ft | 392 kts | 307° |
| 2026-05-07 21:47 | 32.43224 | 19.80753 | 20864 ft | 397 kts | 307° |
| 2026-05-07 21:47 | 32.44977 | 19.78201 | 21405 ft | 402 kts | 307° |
| 2026-05-07 21:47 | 32.46758 | 19.75604 | 21968 ft | 408 kts | 307° |
| 2026-05-07 21:48 | 32.48558 | 19.72972 | 22519 ft | 414 kts | 307° |
| 2026-05-07 21:48 | 32.50386 | 19.70297 | 23097 ft | 420 kts | 307° |
| 2026-05-07 21:48 | 32.52239 | 19.67584 | 23675 ft | 425 kts | 307° |
| 2026-05-07 21:48 | 32.54111 | 19.64843 | 24162 ft | 430 kts | 307° |
| 2026-05-07 21:49 | 32.56005 | 19.62068 | 24670 ft | 434 kts | 307° |
| 2026-05-07 21:49 | 32.57912 | 19.59273 | 25178 ft | 438 kts | 307° |
| 2026-05-07 21:49 | 32.59810 | 19.56489 | 25695 ft | 442 kts | 307° |
| 2026-05-07 21:49 | 32.61753 | 19.53636 | 26223 ft | 446 kts | 307° |
| 2026-05-07 21:50 | 32.63713 | 19.50757 | 26761 ft | 449 kts | 307° |
| 2026-05-07 21:50 | 32.65684 | 19.47860 | 27300 ft | 453 kts | 307° |
| 2026-05-07 21:50 | 32.67669 | 19.44941 | 27869 ft | 456 kts | 307° |
| 2026-05-07 21:50 | 32.69668 | 19.41999 | 28459 ft | 457 kts | 307° |
| 2026-05-07 21:51 | 32.71661 | 19.39062 | 29024 ft | 456 kts | 306° |
| 2026-05-07 21:51 | 32.73650 | 19.36127 | 29625 ft | 456 kts | 306° |
| 2026-05-07 21:51 | 32.75639 | 19.33191 | 30207 ft | 455 kts | 306° |
| 2026-05-07 21:51 | 32.77622 | 19.30263 | 30730 ft | 453 kts | 306° |
| 2026-05-07 21:52 | 32.79617 | 19.27315 | 31267 ft | 451 kts | 306° |
| 2026-05-07 21:52 | 32.81560 | 19.24457 | 31804 ft | 448 kts | 306° |
| 2026-05-07 21:52 | 32.83533 | 19.21598 | 32353 ft | 446 kts | 306° |
| 2026-05-07 21:52 | 32.85502 | 19.18754 | 32904 ft | 443 kts | 306° |
| 2026-05-07 21:53 | 32.87459 | 19.15927 | 33483 ft | 441 kts | 306° |
| 2026-05-07 21:53 | 32.89400 | 19.13118 | 34070 ft | 438 kts | 306° |
| 2026-05-07 21:53 | 32.91333 | 19.10316 | 34586 ft | 437 kts | 306° |
| 2026-05-07 21:53 | 32.93257 | 19.07522 | 35118 ft | 436 kts | 306° |
| 2026-05-07 21:54 | 32.95178 | 19.04729 | 35653 ft | 434 kts | 306° |
| 2026-05-07 21:54 | 32.97094 | 19.01941 | 35948 ft | 435 kts | 306° |
| 2026-05-07 21:54 | 33.00926 | 18.96359 | 35997 ft | 435 kts | 305° |
| 2026-05-07 21:55 | 33.04767 | 18.90759 | 35994 ft | 435 kts | 305° |
| 2026-05-07 21:55 | 33.08599 | 18.85160 | 35994 ft | 435 kts | 305° |
| 2026-05-07 21:56 | 33.11782 | 18.80502 | 35992 ft | 440 kts | 305° |
| 2026-05-07 21:56 | 33.13735 | 18.77640 | 36123 ft | 447 kts | 305° |
| 2026-05-07 21:56 | 33.15709 | 18.74747 | 36362 ft | 450 kts | 305° |
| 2026-05-07 21:57 | 33.17686 | 18.71849 | 36702 ft | 450 kts | 305° |
| 2026-05-07 21:57 | 33.19661 | 18.68955 | 37167 ft | 447 kts | 305° |
| 2026-05-07 21:57 | 33.21611 | 18.66095 | 37737 ft | 442 kts | 305° |
| 2026-05-07 21:57 | 33.23543 | 18.63260 | 38309 ft | 436 kts | 305° |
| 2026-05-07 21:58 | 33.25445 | 18.60465 | 38860 ft | 431 kts | 305° |
| 2026-05-07 21:58 | 33.27324 | 18.57699 | 39349 ft | 425 kts | 305° |
| 2026-05-07 21:58 | 33.29175 | 18.54971 | 39801 ft | 421 kts | 305° |
| 2026-05-07 21:58 | 33.31025 | 18.52241 | 39974 ft | 423 kts | 305° |
| 2026-05-07 21:59 | 33.34783 | 18.46692 | 39987 ft | 432 kts | 304° |
| 2026-05-07 21:59 | 33.38575 | 18.41087 | 39987 ft | 435 kts | 304° |
| 2026-05-07 22:00 | 33.42391 | 18.35419 | 39982 ft | 437 kts | 304° |
| 2026-05-07 22:00 | 33.46153 | 18.29707 | 39980 ft | 437 kts | 304° |
| 2026-05-07 22:01 | 33.49892 | 18.24011 | 39980 ft | 437 kts | 304° |
| 2026-05-07 22:01 | 33.53652 | 18.18282 | 39979 ft | 437 kts | 304° |
| 2026-05-07 22:02 | 33.57412 | 18.12549 | 39975 ft | 437 kts | 304° |
| 2026-05-07 22:02 | 33.61169 | 18.06811 | 39979 ft | 437 kts | 304° |
| 2026-05-07 22:03 | 33.64923 | 18.01069 | 39976 ft | 437 kts | 304° |
| 2026-05-07 22:03 | 33.68668 | 17.95337 | 39983 ft | 435 kts | 303° |
| 2026-05-07 22:04 | 33.72397 | 17.89613 | 39973 ft | 434 kts | 303° |
| 2026-05-07 22:04 | 33.76123 | 17.83887 | 39967 ft | 434 kts | 303° |
| 2026-05-07 22:05 | 33.79846 | 17.78156 | 39969 ft | 434 kts | 303° |
| 2026-05-07 22:05 | 33.83560 | 17.72427 | 39968 ft | 434 kts | 304° |
| 2026-05-07 22:06 | 33.87267 | 17.66703 | 39962 ft | 432 kts | 304° |
| 2026-05-07 22:06 | 33.90939 | 17.61027 | 39962 ft | 432 kts | 304° |
| 2026-05-07 22:07 | 33.94632 | 17.55309 | 39960 ft | 432 kts | 303° |
| 2026-05-07 22:07 | 33.98317 | 17.49592 | 39977 ft | 432 kts | 303° |
| 2026-05-07 22:08 | 34.01993 | 17.43879 | 39963 ft | 430 kts | 303° |
| 2026-05-07 22:08 | 34.05662 | 17.38168 | 39968 ft | 430 kts | 303° |
| 2026-05-07 22:09 | 34.09321 | 17.32464 | 39955 ft | 429 kts | 303° |
| 2026-05-07 22:09 | 34.12975 | 17.26759 | 39954 ft | 429 kts | 303° |
| 2026-05-07 22:10 | 34.16631 | 17.21043 | 39956 ft | 429 kts | 303° |
| 2026-05-07 22:10 | 34.20276 | 17.15335 | 39957 ft | 429 kts | 303° |
| 2026-05-07 22:11 | 34.23925 | 17.09610 | 39957 ft | 429 kts | 303° |
| 2026-05-07 22:11 | 34.27568 | 17.03887 | 39955 ft | 429 kts | 303° |
| 2026-05-07 22:12 | 34.31182 | 16.98200 | 39970 ft | 429 kts | 303° |
| 2026-05-07 22:12 | 34.34826 | 16.92479 | 39955 ft | 429 kts | 304° |
| 2026-05-07 22:13 | 34.38506 | 16.86775 | 39956 ft | 429 kts | 304° |
| 2026-05-07 22:13 | 34.42176 | 16.81080 | 39956 ft | 429 kts | 304° |
| 2026-05-07 22:14 | 34.45850 | 16.75367 | 39954 ft | 429 kts | 303° |
| 2026-05-07 22:14 | 34.49517 | 16.69654 | 39967 ft | 429 kts | 303° |
| 2026-05-07 22:15 | 34.53181 | 16.63939 | 39956 ft | 429 kts | 303° |
| 2026-05-07 22:15 | 34.56838 | 16.58219 | 39952 ft | 429 kts | 303° |
| 2026-05-07 22:16 | 34.60493 | 16.52495 | 39958 ft | 428 kts | 303° |
| 2026-05-07 22:16 | 34.64144 | 16.46771 | 39973 ft | 427 kts | 303° |
| 2026-05-07 22:17 | 34.67782 | 16.41056 | 39956 ft | 427 kts | 303° |
| 2026-05-07 22:17 | 34.71389 | 16.35380 | 39952 ft | 427 kts | 303° |
| 2026-05-07 22:18 | 34.76823 | 16.26815 | 39960 ft | 425 kts | 303° |
| 2026-05-07 22:19 | 34.80437 | 16.21104 | 39959 ft | 425 kts | 303° |
| 2026-05-07 22:19 | 34.84048 | 16.15388 | 39960 ft | 425 kts | 303° |
| 2026-05-07 22:20 | 34.87649 | 16.09680 | 39957 ft | 425 kts | 303° |